Time;durP1;ratioP1;P1;durP2;ratioP2;P2;SDS_P1;SDS_P2;PMS_P1;PMS_P2;Temp;Humidity;BMP_temperature;BMP_pressure;BME280_temperature;BME280_humidity;BME280_pressure;Samples;Min_cycle;Max_cycle;Signal;HPM_P1;HPM_P2
2022/08/25 00:00:59;;;;;;;;;;;;;;;19.30;51.25;100291.97;4901637;29;20461;-83
2022/08/25 00:03:26;;;;;;;;;;;;;;;19.26;51.28;100294.41;4934218;29;19931;-84
2022/08/25 00:06:02;;;;;;;;;;;;;;;19.20;51.43;100296.31;4934552;29;19977;-83
2022/08/25 00:08:33;;;;;;;;;;;;;;;19.20;51.36;100292.78;4918892;29;20021;-83
2022/08/25 00:11:00;;;;;;;;;;;;;;;19.14;51.41;100291.94;4934742;29;19978;-83
2022/08/25 00:13:32;;;;;;;;;;;;;;;19.09;51.54;100291.09;4934041;29;19935;-84
2022/08/25 00:16:00;;;;;;;;;;;;;;;19.00;52.01;100297.09;4934264;29;19969;-83
2022/08/25 00:18:27;;;;;;;;;;;;;;;18.97;51.96;100291.34;4917570;29;19938;-83
2022/08/25 00:20:54;;;;;;;;;;;;;;;18.93;52.34;100291.03;4934311;29;19981;-84
2022/08/25 00:23:21;;;;;;;;;;;;;;;18.93;51.90;100299.25;4917408;29;19937;-84
2022/08/25 00:25:49;;;;;;;;;;;;;;;18.99;51.74;100298.19;4901784;29;20033;-84
2022/08/25 00:28:16;;;;;;;;;;;;;;;18.98;51.67;100292.97;4917632;29;19974;-83
2022/08/25 00:30:43;;;;;;;;;;;;;;;18.98;51.61;100290.25;4917397;29;19934;-84
2022/08/25 00:33:10;;;;;;;;;;;;;;;18.92;51.92;100286.69;4917315;29;19985;-83
2022/08/25 00:35:39;;;;;;;;;;;;;;;18.84;52.23;100289.94;4917264;29;20315;-84
2022/08/25 00:38:05;;;;;;;;;;;;;;;18.79;52.34;100284.44;4938049;29;20353;-84
2022/08/25 00:40:33;;;;;;;;;;;;;;;18.82;52.37;100297.59;4953116;29;19966;-82
2022/08/25 00:42:59;;;;;;;;;;;;;;;18.84;52.30;100284.47;4920481;29;20376;-83
2022/08/25 00:45:27;;;;;;;;;;;;;;;18.82;52.47;100292.09;4953266;29;19930;-83
2022/08/25 00:47:54;;;;;;;;;;;;;;;18.84;52.31;100289.94;4936282;29;19937;-83
2022/08/25 00:50:26;;;;;;;;;;;;;;;18.77;52.61;100292.09;4953079;29;19931;-83
2022/08/25 00:52:55;;;;;;;;;;;;;;;18.76;52.79;100287.69;4953329;29;19930;-83
2022/08/25 00:55:22;;;;;;;;;;;;;;;18.69;52.74;100285.19;4920199;29;19931;-82
2022/08/25 00:57:50;;;;;;;;;;;;;;;18.65;52.89;100286.81;4953161;29;19937;-83
2022/08/25 01:00:38;;;;;;;;;;;;;;;18.60;53.23;100290.34;4936074;29;19997;-85
2022/08/25 01:03:05;;;;;;;;;;;;;;;18.60;53.30;100276.66;4937944;29;19938;-83
2022/08/25 01:05:32;;;;;;;;;;;;;;;18.58;53.29;100295.28;4954115;28;20029;-82
2022/08/25 01:08:01;;;;;;;;;;;;;;;18.58;53.00;100288.97;4954460;29;20482;-83
2022/08/25 01:10:28;;;;;;;;;;;;;;;18.63;52.94;100289.81;4936521;29;20333;-82
2022/08/25 01:12:57;;;;;;;;;;;;;;;18.62;52.99;100292.81;4937028;29;20029;-83
2022/08/25 01:15:24;;;;;;;;;;;;;;;18.55;53.18;100293.03;4939221;29;19930;-83
2022/08/25 01:17:52;;;;;;;;;;;;;;;18.54;53.33;100290.59;4908356;29;19985;-82
2022/08/25 01:20:21;;;;;;;;;;;;;;;18.50;53.51;100290.28;4956276;29;19930;-83
2022/08/25 01:22:53;;;;;;;;;;;;;;;18.46;53.70;100285.59;4939231;29;19937;-82
2022/08/25 01:25:24;;;;;;;;;;;;;;;18.37;53.76;100285.31;4939271;29;20059;-83
2022/08/25 01:27:51;;;;;;;;;;;;;;;18.31;53.97;100292.66;4939209;29;19930;-83
2022/08/25 01:30:18;;;;;;;;;;;;;;;18.27;54.21;100288.78;4956469;29;20308;-83
2022/08/25 01:32:45;;;;;;;;;;;;;;;18.21;54.37;100284.41;4938880;29;19937;-84
2022/08/25 01:35:13;;;;;;;;;;;;;;;18.18;54.37;100283.03;4939051;29;20401;-83
2022/08/25 01:37:39;;;;;;;;;;;;;;;18.16;54.35;100278.91;4955954;29;19930;-85
2022/08/25 01:40:07;;;;;;;;;;;;;;;18.17;54.37;100284.09;4956022;29;19930;-84
2022/08/25 01:42:42;;;;;;;;;;;;;;;18.21;54.46;100283.59;4956034;29;19930;-83
2022/08/25 01:45:09;;;;;;;;;;;;;;;18.22;54.50;100280.56;4922979;29;19985;-83
2022/08/25 01:47:36;;;;;;;;;;;;;;;18.21;54.46;100283.59;4955686;29;19930;-82
2022/08/25 01:50:03;;;;;;;;;;;;;;;18.21;54.43;100284.41;4938881;29;19977;-83
2022/08/25 01:52:46;;;;;;;;;;;;;;;18.23;54.36;100287.69;4938675;29;19930;-83
2022/08/25 01:55:13;;;;;;;;;;;;;;;18.18;54.50;100287.66;4938630;29;19935;-83
2022/08/25 01:57:40;;;;;;;;;;;;;;;18.13;54.89;100291.19;4938626;29;19973;-84
2022/08/25 02:00:08;;;;;;;;;;;;;;;18.09;54.90;100290.06;4955644;29;20374;-83
2022/08/25 02:02:38;;;;;;;;;;;;;;;18.09;55.40;100291.97;4955533;29;20468;-82
2022/08/25 02:05:09;;;;;;;;;;;;;;;18.12;54.89;100292.25;4938566;28;19953;-84
2022/08/25 02:07:37;;;;;;;;;;;;;;;18.12;54.82;100292.25;4955303;29;20432;-82
2022/08/25 02:10:05;;;;;;;;;;;;;;;18.15;54.77;100294.47;4955430;29;20313;-84
2022/08/25 02:12:32;;;;;;;;;;;;;;;18.18;54.62;100298.59;4955349;29;19980;-83
2022/08/25 02:15:19;;;;;;;;;;;;;;;18.14;54.77;100300.19;4941578;29;19930;-83
2022/08/25 02:17:46;;;;;;;;;;;;;;;18.14;54.85;100294.72;4955317;29;20033;-84
2022/08/25 02:20:13;;;;;;;;;;;;;;;18.07;55.06;100294.94;4955278;29;19934;-82
2022/08/25 02:22:40;;;;;;;;;;;;;;;18.03;55.27;100301.19;4937968;29;20424;-83
2022/08/25 02:25:18;;;;;;;;;;;;;;;17.98;55.46;100297.34;4937931;29;19981;-83
2022/08/25 02:27:45;;;;;;;;;;;;;;;17.93;55.71;100291.03;4955069;29;19962;-84
2022/08/25 02:30:13;;;;;;;;;;;;;;;17.88;56.03;100301.94;4938253;29;20440;-84
2022/08/25 02:32:40;;;;;;;;;;;;;;;17.86;56.05;100296.72;4938066;29;19931;-84
2022/08/25 02:35:08;;;;;;;;;;;;;;;17.85;56.22;100296.97;4955243;29;20397;-84
2022/08/25 02:37:35;;;;;;;;;;;;;;;17.90;56.17;100295.13;4922162;29;19930;-84
2022/08/25 02:40:03;;;;;;;;;;;;;;;17.92;56.08;100297.56;4954897;29;19931;-83
2022/08/25 02:42:30;;;;;;;;;;;;;;;17.90;56.21;100294.28;4937934;29;19937;-84
2022/08/25 02:44:57;;;;;;;;;;;;;;;17.87;56.33;100297.53;4949982;29;20377;-84
2022/08/25 02:47:24;;;;;;;;;;;;;;;17.91;56.10;100294.03;4954471;29;20389;-83
2022/08/25 02:49:53;;;;;;;;;;;;;;;17.93;56.18;100289.13;4954850;29;20033;-84
2022/08/25 02:52:20;;;;;;;;;;;;;;;17.95;56.21;100294.31;4937632;29;19931;-82
2022/08/25 02:54:47;;;;;;;;;;;;;;;18.03;55.94;100290.28;4939879;29;19931;-83
2022/08/25 02:57:14;;;;;;;;;;;;;;;18.10;55.75;100296.34;4934982;29;19931;-83
2022/08/25 02:59:41;;;;;;;;;;;;;;;18.14;55.87;100292.00;4935325;29;20393;-83
2022/08/25 03:02:08;;;;;;;;;;;;;;;18.15;55.68;100291.75;4935495;29;19931;-84
2022/08/25 03:04:35;;;;;;;;;;;;;;;18.22;55.76;100286.03;4935073;29;19934;-83
2022/08/25 03:07:11;;;;;;;;;;;;;;;18.26;55.71;100287.16;4919920;29;19997;-83
2022/08/25 03:09:38;;;;;;;;;;;;;;;18.30;55.74;100292.91;4935129;29;20105;-84
2022/08/25 03:12:05;;;;;;;;;;;;;;;18.29;55.90;100286.63;4935334;29;19934;-82
2022/08/25 03:14:32;;;;;;;;;;;;;;;18.35;55.83;100295.66;4934881;29;19931;-84
2022/08/25 03:16:59;;;;;;;;;;;;;;;18.46;55.80;100291.06;4935125;29;19931;-82
2022/08/25 03:19:26;;;;;;;;;;;;;;;18.53;55.59;100291.66;4934736;29;19966;-83
2022/08/25 03:21:55;;;;;;;;;;;;;;;18.58;55.53;100281.59;4935220;29;20409;-83
2022/08/25 03:24:22;;;;;;;;;;;;;;;18.70;55.51;100289.56;4934727;29;20021;-83
2022/08/25 03:26:52;;;;;;;;;;;;;;;18.79;55.29;100287.19;4935086;29;19957;-83
2022/08/25 03:29:21;;;;;;;;;;;;;;;18.89;54.88;100287.22;4934902;29;19931;-83
2022/08/25 03:31:48;;;;;;;;;;;;;;;19.06;54.30;100289.72;4902504;29;20350;-84
2022/08/25 03:34:16;;;;;;;;;;;;;;;19.23;53.80;100292.22;4934773;29;19937;-85
2022/08/25 03:36:45;;;;;;;;;;;;;;;19.39;53.60;100287.59;4934186;29;19935;-87
2022/08/25 03:39:12;;;;;;;;;;;;;;;19.47;53.09;100278.81;4917922;29;19966;-86
2022/08/25 03:41:39;;;;;;;;;;;;;;;19.54;53.29;100275.84;4917766;29;20305;-83
2022/08/25 03:44:08;;;;;;;;;;;;;;;19.63;53.49;100279.69;4934739;29;19930;-86
2022/08/25 03:46:39;;;;;;;;;;;;;;;19.66;53.38;100279.13;4934344;29;19930;-83
2022/08/25 03:49:10;;;;;;;;;;;;;;;19.67;53.64;100278.06;4934619;29;19931;-81
2022/08/25 03:51:39;;;;;;;;;;;;;;;19.70;53.80;100280.28;4917591;29;20391;-81
2022/08/25 03:54:07;;;;;;;;;;;;;;;19.70;54.15;100283.00;4917480;29;19931;-83
2022/08/25 03:56:34;;;;;;;;;;;;;;;19.69;54.15;100279.41;4917465;29;19931;-80
2022/08/25 03:59:01;;;;;;;;;;;;;;;19.75;54.16;100277.53;4934586;29;19998;-86
2022/08/25 04:01:29;;;;;;;;;;;;;;;19.85;53.73;100283.00;4917106;29;20317;-85
2022/08/25 04:03:56;;;;;;;;;;;;;;;20.06;52.61;100280.25;4934426;29;19930;-85
2022/08/25 04:06:24;;;;;;;;;;;;;;;20.23;51.90;100282.66;4934072;29;19939;-83
2022/08/25 04:08:51;;;;;;;;;;;;;;;20.37;51.01;100278.25;4934442;29;19970;-84
2022/08/25 04:11:19;;;;;;;;;;;;;;;20.51;50.56;100279.31;4934461;29;20025;-83
2022/08/25 04:13:46;;;;;;;;;;;;;;;20.61;50.13;100281.22;4917095;29;19930;-83
2022/08/25 04:16:17;;;;;;;;;;;;;;;20.75;49.66;100279.50;4901374;29;19938;-84
2022/08/25 04:18:45;;;;;;;;;;;;;;;20.90;49.48;100275.03;4933909;29;19931;-84
2022/08/25 04:21:12;;;;;;;;;;;;;;;20.94;49.41;100268.72;4917253;29;19931;-84
2022/08/25 04:23:40;;;;;;;;;;;;;;;21.01;49.48;100262.91;4901512;29;20421;-83
2022/08/25 04:26:10;;;;;;;;;;;;;;;21.13;49.02;100260.63;4934425;29;19938;-84
2022/08/25 04:28:40;;;;;;;;;;;;;;;21.21;48.61;100257.28;4917395;29;20402;-83
2022/08/25 04:31:08;;;;;;;;;;;;;;;21.31;48.56;100261.06;4934181;29;19970;-82
2022/08/25 04:33:35;;;;;;;;;;;;;;;21.41;48.13;100259.09;4933964;29;19946;-83
2022/08/25 04:36:03;;;;;;;;;;;;;;;21.48;47.80;100264.28;4933948;29;20021;-84
2022/08/25 04:38:37;;;;;;;;;;;;;;;21.54;47.64;100257.63;4932918;29;20402;-84
2022/08/25 04:41:09;;;;;;;;;;;;;;;21.60;47.46;100261.97;4932753;29;20002;-84
2022/08/25 04:43:36;;;;;;;;;;;;;;;21.71;47.22;100259.16;4869249;29;19930;-84
2022/08/25 04:46:07;;;;;;;;;;;;;;;21.79;46.82;100259.34;4901216;29;19930;-84
2022/08/25 04:48:34;;;;;;;;;;;;;;;21.89;46.63;100254.88;4934051;29;20405;-84
2022/08/25 04:51:08;;;;;;;;;;;;;;;21.97;46.12;100252.28;4937657;29;20445;-84
2022/08/25 04:53:35;;;;;;;;;;;;;;;22.13;46.26;100252.13;4920366;29;19938;-84
2022/08/25 04:56:05;;;;;;;;;;;;;;;22.25;45.99;100255.34;4937311;29;19985;-84
2022/08/25 04:58:32;;;;;;;;;;;;;;;22.41;45.68;100256.81;4937376;29;19935;-83
2022/08/25 05:01:03;;;;;;;;;;;;;;;22.55;45.23;100256.09;4937263;29;20381;-83
2022/08/25 05:03:30;;;;;;;;;;;;;;;22.67;44.68;100251.00;4920128;29;19937;-84
2022/08/25 05:05:57;;;;;;;;;;;;;;;22.76;44.47;100256.66;4937224;29;19985;-83
2022/08/25 05:08:24;;;;;;;;;;;;;;;22.90;44.47;100243.81;4933539;29;19986;-84
2022/08/25 05:10:53;;;;;;;;;;;;;;;23.00;44.35;100242.88;4925064;29;20025;-85
2022/08/25 05:13:22;;;;;;;;;;;;;;;23.08;44.04;100247.72;4915014;29;19938;-83
2022/08/25 05:15:56;;;;;;;;;;;;;;;23.18;44.02;100247.56;4914561;29;19935;-84
2022/08/25 05:18:27;;;;;;;;;;;;;;;23.25;43.70;100244.44;4897942;29;19931;-83
2022/08/25 05:20:55;;;;;;;;;;;;;;;23.31;43.32;100249.56;4923821;29;19941;-83
2022/08/25 05:23:23;;;;;;;;;;;;;;;23.43;43.39;100242.78;4877058;29;20421;-84
2022/08/25 05:25:50;;;;;;;;;;;;;;;23.55;43.22;100245.88;4930262;29;19994;-83
2022/08/25 05:28:23;;;;;;;;;;;;;;;23.65;43.09;100239.38;4932435;29;19931;-84
2022/08/25 05:30:51;;;;;;;;;;;;;;;23.73;42.64;100241.47;4927679;29;19937;-84
2022/08/25 05:33:19;;;;;;;;;;;;;;;23.83;42.86;100246.00;4884618;29;19938;-84
2022/08/25 05:35:45;;;;;;;;;;;;;;;23.97;42.06;100246.81;4916063;29;19931;-82
2022/08/25 05:38:12;;;;;;;;;;;;;;;24.10;41.79;100235.00;4916060;29;20402;-82
2022/08/25 05:40:52;;;;;;;;;;;;;;;24.19;41.33;100235.13;4911639;29;20322;-84
2022/08/25 05:43:45;;;;;;;;;;;;;;;24.38;41.41;100240.53;4918358;29;20073;-83
2022/08/25 05:46:14;;;;;;;;;;;;;;;24.44;41.10;100233.78;4922758;29;20560;-86
2022/08/25 05:48:41;;;;;;;;;;;;;;;24.52;40.72;100240.56;4927421;29;19938;-88
2022/08/25 05:51:14;;;;;;;;;;;;;;;24.58;40.72;100231.03;4920219;29;19931;-85
2022/08/25 05:53:42;;;;;;;;;;;;;;;24.67;40.88;100233.91;4897784;29;19931;-87
2022/08/25 05:56:09;;;;;;;;;;;;;;;24.77;41.08;100228.16;4883180;29;20351;-90
2022/08/25 05:58:37;;;;;;;;;;;;;;;24.83;40.71;100233.25;4915166;29;19931;-91
2022/08/25 06:03:54;;;;;;;;;;;;;;;25.08;40.83;100231.03;4896077;29;19938;-90
2022/08/25 06:06:23;;;;;;;;;;;;;;;25.18;40.20;100232.78;4921685;29;20303;-86
2022/08/25 06:08:51;;;;;;;;;;;;;;;25.29;40.32;100234.16;4559249;28;9999924;-88
2022/08/25 06:11:19;;;;;;;;;;;;;;;25.41;40.00;100231.66;4929525;29;19935;-87
2022/08/25 06:13:45;;;;;;;;;;;;;;;25.48;40.32;100234.81;4925251;29;20006;-87
2022/08/25 06:16:13;;;;;;;;;;;;;;;25.61;39.79;100224.00;4916180;29;20017;-85
2022/08/25 06:18:40;;;;;;;;;;;;;;;25.73;39.35;100232.53;4931858;29;19962;-84
2022/08/25 06:21:08;;;;;;;;;;;;;;;25.83;39.46;100235.03;4916237;29;19937;-85
2022/08/25 06:23:35;;;;;;;;;;;;;;;25.93;38.85;100237.56;4927871;29;19937;-85
2022/08/25 06:26:03;;;;;;;;;;;;;;;26.02;38.37;100236.78;4935052;29;19982;-85
2022/08/25 06:28:30;;;;;;;;;;;;;;;25.98;38.77;100231.06;4915726;29;19994;-84
2022/08/25 06:30:59;;;;;;;;;;;;;;;26.00;38.06;100230.75;4915574;29;19937;-85
2022/08/25 06:33:29;;;;;;;;;;;;;;;26.04;37.74;100226.22;4911556;29;19931;-84
2022/08/25 06:35:56;;;;;;;;;;;;;;;26.11;36.95;100230.16;4922684;29;19955;-84
2022/08/25 06:38:24;;;;;;;;;;;;;;;26.19;36.75;100234.09;4899755;29;20433;-84
2022/08/25 06:40:52;;;;;;;;;;;;;;;26.29;36.78;100233.81;4921398;29;19931;-85
2022/08/25 06:43:19;;;;;;;;;;;;;;;26.38;36.43;100231.03;4897014;29;20527;-85
2022/08/25 06:45:48;;;;;;;;;;;;;;;26.45;36.45;100234.16;4922320;29;20498;-86
2022/08/25 06:48:23;;;;;;;;;;;;;;;26.51;36.24;100226.53;4912861;29;19938;-85
2022/08/25 06:50:52;;;;;;;;;;;;;;;26.60;35.62;100221.88;4913241;29;19931;-86
2022/08/25 06:53:19;;;;;;;;;;;;;;;26.58;35.75;100224.94;4925210;29;19954;-87
2022/08/25 06:55:54;;;;;;;;;;;;;;;26.75;35.55;100223.38;4913093;29;19931;-85
2022/08/25 06:58:21;;;;;;;;;;;;;;;26.82;35.23;100220.94;4929813;29;19931;-87
2022/08/25 07:00:51;;;;;;;;;;;;;;;26.92;34.16;100219.81;4914552;29;19938;-87
2022/08/25 07:03:19;;;;;;;;;;;;;;;27.09;33.85;100222.56;4896718;29;19931;-87
2022/08/25 07:05:53;;;;;;;;;;;;;;;27.20;33.78;100206.47;4905082;29;20029;-85
2022/08/25 07:08:22;;;;;;;;;;;;;;;27.33;33.63;100210.22;4903268;29;20719;-85
2022/08/25 07:10:50;;;;;;;;;;;;;;;27.48;33.78;100215.25;4913242;29;19938;-89
2022/08/25 07:13:17;;;;;;;;;;;;;;;27.59;33.74;100216.53;4899646;29;19939;-88
2022/08/25 07:16:14;;;;;;;;;;;;;;;27.67;32.96;100214.88;4895826;29;19930;-86
2022/08/25 07:18:42;;;;;;;;;;;;;;;27.75;33.25;100210.44;4914743;29;19930;-85
2022/08/25 07:21:11;;;;;;;;;;;;;;;27.86;33.13;100212.56;4906539;29;19937;-89
2022/08/25 07:23:38;;;;;;;;;;;;;;;28.04;33.15;100207.78;4888493;29;20310;-85
2022/08/25 07:26:13;;;;;;;;;;;;;;;28.18;32.74;100212.28;4923118;29;20383;-87
2022/08/25 07:29:00;;;;;;;;;;;;;;;28.15;32.48;100207.41;4922089;29;20286;-85
2022/08/25 07:31:28;;;;;;;;;;;;;;;28.29;32.73;100206.03;4921226;29;20423;-87
2022/08/25 07:36:44;;;;;;;;;;;;;;;28.60;32.74;100206.88;4912727;29;19935;-88
2022/08/25 07:39:11;;;;;;;;;;;;;;;28.61;32.35;100206.53;4920080;29;20398;-84
2022/08/25 07:41:39;;;;;;;;;;;;;;;28.71;32.33;100205.31;4926540;29;19930;-86
2022/08/25 07:44:06;;;;;;;;;;;;;;;29.03;32.11;100202.97;4912999;29;20396;-84
2022/08/25 07:46:33;;;;;;;;;;;;;;;29.06;31.17;100205.09;4918567;29;19930;-84
2022/08/25 07:49:00;;;;;;;;;;;;;;;29.14;30.61;100205.03;4916349;29;19931;-85
2022/08/25 07:51:27;;;;;;;;;;;;;;;29.19;30.48;100201.19;4914112;29;20369;-85
2022/08/25 07:53:54;;;;;;;;;;;;;;;29.34;30.09;100199.75;4927622;29;19935;-84
2022/08/25 07:56:22;;;;;;;;;;;;;;;29.30;29.62;100196.06;4926244;29;20382;-86
2022/08/25 07:58:49;;;;;;;;;;;;;;;29.41;30.10;100202.81;4934407;29;19989;-86
2022/08/25 08:01:17;;;;;;;;;;;;;;;29.58;29.73;100197.06;4934152;29;19931;-86
2022/08/25 08:03:44;;;;;;;;;;;;;;;29.50;29.87;100194.34;4921335;29;19939;-85
2022/08/25 08:06:21;;;;;;;;;;;;;;;29.48;30.06;100191.94;4932299;29;19938;-84
2022/08/25 08:08:49;;;;;;;;;;;;;;;29.62;29.92;100191.63;4932098;29;20382;-84
2022/08/25 08:11:21;;;;;;;;;;;;;;;29.82;30.04;100187.16;4932889;29;20014;-85
2022/08/25 08:13:49;;;;;;;;;;;;;;;29.92;30.04;100180.34;4937787;29;20038;-84
2022/08/25 08:16:18;;;;;;;;;;;;;;;29.77;29.74;100182.63;4935006;29;19934;-83
2022/08/25 08:18:45;;;;;;;;;;;;;;;29.80;29.57;100176.41;4933334;29;19935;-84
2022/08/25 08:21:13;;;;;;;;;;;;;;;30.10;29.47;100176.16;4916740;29;20029;-85
2022/08/25 08:23:47;;;;;;;;;;;;;;;30.49;28.76;100173.03;4921722;29;19931;-85
2022/08/25 08:26:30;;;;;;;;;;;;;;;30.80;28.75;100167.66;4937572;29;19930;-86
2022/08/25 08:29:24;;;;;;;;;;;;;;;31.44;28.13;100160.34;4921232;29;19931;-85
2022/08/25 08:31:51;;;;;;;;;;;;;;;31.73;27.09;100164.69;4938146;29;19974;-87
2022/08/25 08:34:18;;;;;;;;;;;;;;;31.87;27.41;100155.06;4920802;29;19931;-86
2022/08/25 08:36:50;;;;;;;;;;;;;;;31.87;26.77;100152.28;4920648;29;20025;-86
2022/08/25 08:39:17;;;;;;;;;;;;;;;31.76;27.25;100165.97;4937694;29;19931;-85
2022/08/25 08:44:43;;;;;;;;;;;;;;;32.05;26.63;100152.75;4920281;29;19931;-86
2022/08/25 08:47:10;;;;;;;;;;;;;;;31.98;25.93;100155.34;4937374;29;19937;-86
2022/08/25 08:49:44;;;;;;;;;;;;;;;32.14;25.97;100150.59;4920403;29;20437;-86
2022/08/25 08:52:12;;;;;;;;;;;;;;;32.27;26.36;100146.50;4920701;29;20445;-84
2022/08/25 08:54:39;;;;;;;;;;;;;;;32.63;24.90;100143.72;4904593;29;19931;-85
2022/08/25 08:57:11;;;;;;;;;;;;;;;33.01;24.81;100140.13;4905293;29;20049;-85
2022/08/25 08:59:46;;;;;;;;;;;;;;;33.38;24.50;100136.88;4904715;29;19935;-85
2022/08/25 09:02:33;;;;;;;;;;;;;;;33.63;24.28;100135.38;4905202;29;19930;-85
2022/08/25 09:05:20;;;;;;;;;;;;;;;33.84;23.59;100145.31;4937156;29;19931;-86
2022/08/25 09:07:53;;;;;;;;;;;;;;;34.46;23.30;100131.06;4921325;29;20023;-86
2022/08/25 09:10:22;;;;;;;;;;;;;;;34.50;22.51;100131.94;4922049;29;19931;-84
2022/08/25 09:12:53;;;;;;;;;;;;;;;34.51;22.78;100125.13;4922157;29;19941;-87
2022/08/25 09:15:24;;;;;;;;;;;;;;;34.81;22.65;100132.75;4906576;29;19938;-86
2022/08/25 09:17:51;;;;;;;;;;;;;;;34.69;21.95;100133.78;4919998;29;20309;-85
2022/08/25 09:20:33;;;;;;;;;;;;;;;34.78;22.17;100128.72;4920167;29;19938;-87
2022/08/25 09:23:12;;;;;;;;;;;;;;;34.95;22.13;100127.31;4920122;29;20290;-87
2022/08/25 09:26:04;;;;;;;;;;;;;;;34.70;21.37;100118.59;4937227;29;19991;-86
2022/08/25 09:28:31;;;;;;;;;;;;;;;35.17;21.10;100117.16;4920030;29;19938;-87
2022/08/25 09:30:58;;;;;;;;;;;;;;;35.72;20.38;100119.31;4936659;29;19930;-87
2022/08/25 09:33:25;;;;;;;;;;;;;;;36.20;20.20;100117.28;4929571;29;19938;-84
2022/08/25 09:35:53;;;;;;;;;;;;;;;36.62;19.86;100115.16;4927098;29;20421;-85
2022/08/25 09:38:23;;;;;;;;;;;;;;;36.71;19.70;100104.34;4902575;29;19962;-85
2022/08/25 09:40:53;;;;;;;;;;;;;;;36.92;19.43;100111.22;4926383;29;20408;-87
2022/08/25 09:43:43;;;;;;;;;;;;;;;36.70;18.96;100113.19;4883310;29;20203;-87
2022/08/25 09:46:14;;;;;;;;;;;;;;;36.86;18.74;100110.81;4933463;29;19930;-88
2022/08/25 09:48:46;;;;;;;;;;;;;;;37.00;18.88;100107.25;4914546;29;20358;-86
2022/08/25 09:51:32;;;;;;;;;;;;;;;37.18;18.70;100110.94;4928024;29;20309;-87
2022/08/25 09:54:11;;;;;;;;;;;;;;;37.24;18.47;100106.50;4903000;29;19930;-87
2022/08/25 09:57:04;;;;;;;;;;;;;;;;;;;;;
2022/08/25 09:59:35;;;;;;;;;;;;;;;37.21;18.32;100100.91;4921476;29;20317;-86
2022/08/25 10:02:04;;;;;;;;;;;;;;;36.92;18.36;100089.56;4899045;29;20413;-88
2022/08/25 10:04:33;;;;;;;;;;;;;;;36.77;17.73;100085.88;4904562;29;19984;-86
2022/08/25 10:07:01;;;;;;;;;;;;;;;36.44;17.85;100084.13;4895488;29;19935;-87
2022/08/25 10:09:37;;;;;;;;;;;;;;;36.70;18.32;100085.06;4916721;29;19938;-87
2022/08/25 10:12:15;;;;;;;;;;;;;;;37.23;18.08;100087.25;4913222;29;20323;-85
2022/08/25 10:14:46;;;;;;;;;;;;;;;37.71;17.90;100086.88;4911458;29;19930;-87
2022/08/25 10:17:23;;;;;;;;;;;;;;;37.86;17.56;100091.28;4932563;29;20404;-86
2022/08/25 10:19:54;;;;;;;;;;;;;;;37.99;17.37;100085.28;4924531;29;19931;-87
2022/08/25 10:22:25;;;;;;;;;;;;;;;38.86;17.17;100086.59;4925626;29;20376;-87
2022/08/25 10:24:54;;;;;;;;;;;;;;;39.05;16.45;100088.94;4907246;29;20069;-87
2022/08/25 10:27:24;;;;;;;;;;;;;;;38.81;16.50;100085.81;4899488;29;20395;-88
2022/08/25 10:30:07;;;;;;;;;;;;;;;38.97;15.94;100085.34;4912565;29;19930;-88
2022/08/25 10:32:47;;;;;;;;;;;;;;;38.39;16.20;100086.78;4918024;29;19931;-87
2022/08/25 10:35:22;;;;;;;;;;;;;;;38.44;16.65;100082.75;4901695;29;19934;-88
2022/08/25 10:38:22;;;;;;;;;;;;;;;38.42;16.83;100088.78;4901345;29;20420;-86
2022/08/25 10:41:01;;;;;;;;;;;;;;;38.67;16.62;100088.72;4859609;29;19939;-87
2022/08/25 10:43:30;;;;;;;;;;;;;;;39.57;16.00;100079.69;4843004;29;20128;-88
2022/08/25 10:45:57;;;;;;;;;;;;;;;40.07;15.92;100073.59;4852811;29;20004;-87
2022/08/25 10:48:53;;;;;;;;;;;;;;;40.13;15.47;100074.75;4838297;29;19984;-87
2022/08/25 10:51:28;;;;;;;;;;;;;;;40.90;15.17;100065.75;4834569;29;20501;-87
2022/08/25 10:54:14;;;;;;;;;;;;;;;41.04;15.42;100064.72;4853897;29;19939;-87
2022/08/25 10:56:55;;;;;;;;;;;;;;;39.81;15.66;100063.78;4868379;29;19938;-86
2022/08/25 10:59:38;;;;;;;;;;;;;;;39.08;15.91;100050.63;4862456;29;19971;-87
2022/08/25 11:02:24;;;;;;;;;;;;;;;39.22;16.34;100042.03;4857597;29;19932;-85
2022/08/25 11:04:59;;;;;;;;;;;;;;;38.94;15.86;100043.84;4858164;29;19932;-88
2022/08/25 11:07:33;;;;;;;;;;;;;;;38.07;16.75;100041.78;4843079;29;20340;-88
2022/08/25 11:10:10;;;;;;;;;;;;;;;37.68;17.29;100037.00;4870972;29;19971;-88
2022/08/25 11:12:38;;;;;;;;;;;;;;;37.99;17.36;100037.38;4840352;29;19931;-88
2022/08/25 11:15:09;;;;;;;;;;;;;;;38.88;16.80;100036.22;4833301;29;20475;-87
2022/08/25 11:17:55;;;;;;;;;;;;;;;39.36;16.35;100022.19;4895148;29;19963;-88
2022/08/25 11:20:27;;;;;;;;;;;;;;;40.16;16.10;100034.34;4897612;29;19935;-87
2022/08/25 11:23:10;;;;;;;;;;;;;;;40.61;15.55;100025.69;4897137;29;19932;-85
2022/08/25 11:25:46;;;;;;;;;;;;;;;40.23;15.58;100013.69;4897330;29;19931;-87
2022/08/25 11:28:17;;;;;;;;;;;;;;;40.11;16.01;100009.38;4897849;29;19970;-85
2022/08/25 11:30:52;;;;;;;;;;;;;;;39.92;15.37;100030.56;4897691;29;19983;-86
2022/08/25 11:33:20;;;;;;;;;;;;;;;38.61;16.31;100022.66;4899459;29;20032;-87
2022/08/25 11:35:57;;;;;;;;;;;;;;;38.87;16.45;100012.84;4897869;29;19931;-88
2022/08/25 11:38:44;;;;;;;;;;;;;;;38.84;16.53;100022.13;4880787;29;20062;-86
2022/08/25 11:41:27;;;;;;;;;;;;;;;38.77;16.67;100010.91;4880761;29;19963;-88
2022/08/25 11:44:23;;;;;;;;;;;;;;;38.20;16.97;100011.94;4866219;29;19939;-87
2022/08/25 11:47:00;;;;;;;;;;;;;;;38.69;16.81;100007.31;4821398;29;19970;-88
2022/08/25 11:49:36;;;;;;;;;;;;;;;38.89;16.36;100007.59;4822090;29;19940;-88
2022/08/25 11:52:05;;;;;;;;;;;;;;;39.65;16.04;100000.16;4821760;29;19933;-87
2022/08/25 11:54:38;;;;;;;;;;;;;;;39.79;15.91;99992.78;4806709;29;19939;-87
2022/08/25 11:57:24;;;;;;;;;;;;;;;38.94;16.22;99992.25;4791513;29;19944;-87
2022/08/25 11:59:52;;;;;;;;;;;;;;;39.06;16.13;99994.59;4806602;29;19933;-87
2022/08/25 12:02:47;;;;;;;;;;;;;;;38.95;16.43;99991.06;4822272;29;20025;-86
2022/08/25 12:05:20;;;;;;;;;;;;;;;38.91;16.47;99993.09;4815882;29;19932;-87
2022/08/25 12:10:53;;;;;;;;;;;;;;;40.75;15.69;99987.97;4821637;29;20352;-90
2022/08/25 12:13:26;;;;;;;;;;;;;;;40.14;15.76;99988.72;4827131;29;20467;-85
2022/08/25 12:15:54;;;;;;;;;;;;;;;38.96;16.46;99984.19;4839298;29;20316;-87
2022/08/25 12:18:21;;;;;;;;;;;;;;;39.30;16.57;99984.31;4841832;29;19979;-88
2022/08/25 12:20:51;;;;;;;;;;;;;;;40.33;15.91;99966.72;4837189;29;19940;-87
2022/08/25 12:23:31;;;;;;;;;;;;;;;40.97;15.47;99970.63;4880879;29;19931;-87
2022/08/25 12:26:11;;;;;;;;;;;;;;;41.59;14.92;99969.22;4906970;29;20427;-88
2022/08/25 12:28:47;;;;;;;;;;;;;;;40.88;15.36;99983.31;4894925;29;19998;-88
2022/08/25 12:31:55;;;;;;;;;;;;;;;38.31;16.97;99973.25;4926839;29;19971;-88
2022/08/25 12:34:33;;;;;;;;;;;;;;;39.06;16.84;99972.00;4919187;29;19932;-87
2022/08/25 12:37:11;;;;;;;;;;;;;;;38.50;16.95;99968.34;4925553;29;19931;-88
2022/08/25 12:40:05;;;;;;;;;;;;;;;38.21;17.32;99971.28;4883008;29;19979;-88
2022/08/25 12:42:37;;;;;;;;;;;;;;;39.10;16.71;99964.34;4914154;29;19986;-86
2022/08/25 12:45:08;;;;;;;;;;;;;;;38.77;16.87;99951.66;4922261;29;19986;-86
2022/08/25 12:47:36;;;;;;;;;;;;;;;38.65;16.99;99949.31;4926228;29;20425;-86
2022/08/25 12:50:23;;;;;;;;;;;;;;;39.22;16.42;99948.88;4915731;29;20350;-88
2022/08/25 12:52:51;;;;;;;;;;;;;;;40.74;15.94;99949.56;4915444;29;19981;-88
2022/08/25 12:55:19;;;;;;;;;;;;;;;41.09;15.28;99953.06;4912133;29;19931;-86
2022/08/25 12:57:56;;;;;;;;;;;;;;;40.33;15.44;99944.88;4911136;29;20275;-87
2022/08/25 13:00:26;;;;;;;;;;;;;;;40.02;15.63;99941.25;4921938;29;19931;-88
2022/08/25 13:02:53;;;;;;;;;;;;;;;39.15;16.18;99940.50;4903534;29;19931;-90
2022/08/25 13:05:48;;;;;;;;;;;;;;;38.68;16.52;99945.69;4901833;29;19935;-86
2022/08/25 13:08:38;;;;;;;;;;;;;;;38.32;17.03;99946.66;4894148;29;19931;-87
2022/08/25 13:11:14;;;;;;;;;;;;;;;39.05;16.52;99942.19;4914854;29;19962;-85